Seaspan Commander — CFN6637 — position and weather

sailwx.info

Track history (hours):
 
Tides and Currents Weather Stations Pressure Air Temp Water Temp Dewpoint Dewpoint Depression Visibility Wind Speed Wind Dir Waves Ship Positions

Seaspan Commander

Last reported at 2018-Apr-25 00:30 UTC. Time now 2018-Apr-25 00:49 UTC.
Position N 49°08' W 123°13'.

Length 23 m; draft 4.3 m.

Type: Tug. MMSI: 316005498.

Date/timePositionNaut miles runAvg speedWind from/ knotsBaromVisibWave heightAir tempDewpointWater temp
2018-Apr-25 00:30N 49°08' W 123°13'5 9.8
2018-Apr-24 23:58N 49°07' W 123°05'4 9.2
2018-Apr-24 23:30N 49°09' W 122°59'2 3.0
2018-Apr-24 22:59N 49°09' W 122°57'2 4.7
2018-Apr-24 22:30N 49°09' W 123°00'3 6.9
2018-Apr-24 22:00N 49°07' W 123°05'3 6.7
2018-Apr-24 21:30N 49°07' W 123°10'3 6.4
2018-Apr-24 20:58N 49°08' W 123°15'3 7.5
2018-Apr-24 20:30N 49°06' W 123°19'4 7.2
2018-Apr-24 20:00N 49°07' W 123°25'5 8.6
2018-Apr-24 19:28N 49°09' W 123°31'6 0.7
2018-Apr-24 10:58N 49°12' W 123°38'2 5.1
2018-Apr-24 10:29N 49°11' W 123°35'3 5.1
2018-Apr-24 09:59N 49°10' W 123°31'2 4.6
2018-Apr-24 09:30N 49°09' W 123°28'2 4.3
2018-Apr-24 09:00N 49°08' W 123°25'2 4.2
2018-Apr-24 08:30N 49°07' W 123°23'2 4.8
2018-Apr-24 08:00N 49°06' W 123°19'3 6.8
2018-Apr-24 07:30N 49°08' W 123°14'3 6.2
2018-Apr-24 07:00N 49°07' W 123°10'3 6.2
2018-Apr-24 06:30N 49°07' W 123°05'3 6.8
2018-Apr-24 06:00N 49°09' W 123°01'3 5.6
2018-Apr-24 05:30N 49°10' W 122°57'0 0.5
2018-Apr-24 05:01N 49°09' W 122°57'0 0.9
2018-Apr-24 04:30N 49°10' W 122°58'0 0.0
2018-Apr-24 04:00N 49°10' W 122°58'1 2.4
2018-Apr-24 03:30N 49°09' W 122°60'4 7.8
2018-Apr-24 03:00N 49°07' W 123°05'6 7.0
2018-Apr-24 02:11N 49°08' W 123°14'1 6.7
2018-Apr-24 01:59N 49°07' W 123°15'2 4.4
2018-Apr-24 01:27N 49°08' W 123°19'4 9.9
2018-Apr-24 01:00N 49°12' W 123°18'5 9.4
2018-Apr-24 00:30N 49°17' W 123°17'3 6.9
2018-Apr-24 00:00N 49°18' W 123°12'4 7.3
2018-Apr-23 23:30N 49°18' W 123°07'0 0.6
2018-Apr-23 23:00N 49°19' W 123°06'0 0.0
2018-Apr-23 22:30N 49°19' W 123°06'0 0.0
2018-Apr-23 22:00N 49°19' W 123°06'0 0.0
2018-Apr-23 21:30N 49°19' W 123°06'0 0.0
2018-Apr-23 21:00N 49°19' W 123°06'0 0.0
2018-Apr-23 20:30N 49°19' W 123°06'0 0.0
2018-Apr-23 20:00N 49°19' W 123°06'0 0.0
2018-Apr-23 19:30N 49°19' W 123°06'0 0.0
2018-Apr-22 15:46N 49°19' W 123°06'0 0.0
2018-Apr-22 13:50N 49°19' W 123°06'0 0.0
2018-Apr-22 13:30N 49°19' W 123°06'0 0.0
2018-Apr-22 13:00N 49°19' W 123°06'0 0.0
2018-Apr-22 12:30N 49°19' W 123°06'0 0.0
2018-Apr-22 12:00N 49°19' W 123°06'0 0.0
2018-Apr-22 11:30N 49°19' W 123°06'0 0.0
2018-Apr-22 11:00N 49°19' W 123°06'0 0.0
2018-Apr-22 10:30N 49°19' W 123°06'2 5.0
2018-Apr-22 10:00N 49°19' W 123°10'510.0
2018-Apr-22 09:30N 49°17' W 123°17'5 9.8
2018-Apr-22 08:57N 49°12' W 123°18'5 9.1
2018-Apr-22 08:22N 49°06' W 123°19'4 9.8
2018-Apr-22 08:00N 49°08' W 123°13'5 9.3
2018-Apr-22 07:29N 49°07' W 123°06'5 9.1
2018-Apr-22 06:59N 49°09' W 123°00'4 7.9
2018-Apr-22 06:30N 49°11' W 122°55'2 4.5
2018-Apr-22 06:00N 49°13' W 122°53'1 2.8
2018-Apr-22 05:30N 49°12' W 122°55'3 6.3
2018-Apr-22 04:59N 49°09' W 122°58'4 8.6
2018-Apr-22 04:30N 49°08' W 123°04'6 8.2
2018-Apr-22 03:43N 49°08' W 123°14'19 6.8
2018-Apr-22 00:59N 48°57' W 123°37'2 4.8
2018-Apr-22 00:30N 48°54' W 123°36'2 4.7
2018-Apr-22 00:01N 48°52' W 123°38'0 0.4
2018-Apr-21 23:30N 48°52' W 123°38'0 0.5
2018-Apr-21 22:50N 48°53' W 123°38'1 2.0
2018-Apr-21 22:30N 48°53' W 123°37'3 6.2
2018-Apr-21 22:00N 48°56' W 123°37'14 6.1
2018-Apr-21 19:41N 49°05' W 123°20'2 6.7
2018-Apr-21 19:23N 49°06' W 123°18'3 7.5
2018-Apr-21 18:59N 49°08' W 123°14'4 7.5
2018-Apr-21 18:30N 49°07' W 123°09'4 7.1
2018-Apr-21 18:00N 49°08' W 123°04'3 6.6
2018-Apr-21 17:30N 49°09' W 122°59'1 2.0
2018-Apr-21 16:59N 49°09' W 122°58'1 1.7
2018-Apr-21 16:30N 49°10' W 122°56'1 1.6
2018-Apr-21 16:00N 49°10' W 122°55'0 0.0
2018-Apr-21 15:30N 49°10' W 122°55'1 1.2
2018-Apr-21 15:00N 49°10' W 122°56'1 1.6
2018-Apr-21 14:30N 49°09' W 122°57'0 0.0
2018-Apr-21 13:58N 49°09' W 122°57'0 0.0
2018-Apr-21 13:30N 49°09' W 122°57'0 0.0
2018-Apr-21 13:00N 49°09' W 122°57'0 0.0
2018-Apr-21 12:30N 49°09' W 122°57'0 0.0
2018-Apr-21 12:00N 49°09' W 122°57'0 0.0
2018-Apr-21 11:30N 49°09' W 122°57'0 0.0
2018-Apr-21 11:00N 49°09' W 122°57'0 0.0
2018-Apr-21 10:30N 49°09' W 122°57'0 0.0
2018-Apr-21 10:00N 49°09' W 122°57'0 0.0
2018-Apr-21 09:30N 49°09' W 122°57'0 0.0
2018-Apr-21 09:00N 49°09' W 122°57'0 0.0
2018-Apr-21 08:30N 49°09' W 122°57'3 6.7
2018-Apr-21 08:00N 49°09' W 123°02'510.1
2018-Apr-21 07:30N 49°07' W 123°09'2 0.3
2018-Apr-21 02:48N 49°07' W 123°12'3 8.6
2018-Apr-21 02:30N 49°07' W 123°08'4 8.9
2018-Apr-21 02:00N 49°09' W 123°02'3 5.1
2018-Apr-21 01:30N 49°10' W 122°58'0 0.0
2018-Apr-21 01:00N 49°10' W 122°58'1 1.3
2018-Apr-21 00:30N 49°09' W 122°59'3 6.0
2018-Apr-21 00:00N 49°08' W 123°03'3 5.8
2018-Apr-20 23:29N 49°07' W 123°07'3 5.3
2018-Apr-20 22:55N 49°07' W 123°12'2 5.0
2018-Apr-20 22:30N 49°08' W 123°15'17 4.5
2018-Apr-20 18:41N 48°57' W 123°35'1 4.7
2018-Apr-20 18:29N 48°56' W 123°37'3 5.4
2018-Apr-20 17:58N 48°53' W 123°37'1 3.1
2018-Apr-20 17:30N 48°53' W 123°38'0 0.4
2018-Apr-20 17:00N 48°53' W 123°38'3 5.8
2018-Apr-20 16:30N 48°55' W 123°40'2 2.2
2018-Apr-20 15:45N 48°55' W 123°43'0 0.1
2018-Apr-20 14:47N 48°55' W 123°43'1 4.4
2018-Apr-20 14:29N 48°56' W 123°41'4 7.6
2018-Apr-20 14:00N 48°52' W 123°38'0 0.2
2018-Apr-20 13:28N 48°52' W 123°38'1 2.6
2018-Apr-20 13:00N 48°53' W 123°37'2 4.4
2018-Apr-20 12:30N 48°56' W 123°37'14 4.7
2018-Apr-20 09:27N 49°05' W 123°21'3 6.1
2018-Apr-20 09:00N 49°07' W 123°17'3 5.7
2018-Apr-20 08:30N 49°08' W 123°13'3 5.9
2018-Apr-20 08:00N 49°07' W 123°09'3 5.6
2018-Apr-20 07:29N 49°07' W 123°05'3 5.5
2018-Apr-20 07:00N 49°09' W 123°01'2 4.7
2018-Apr-20 06:30N 49°09' W 122°58'0 0.6
2018-Apr-20 06:00N 49°09' W 122°57'0 0.1
2018-Apr-20 05:29N 49°09' W 122°57'0 0.9
2018-Apr-20 04:59N 49°10' W 122°58'3 5.4
2018-Apr-20 04:30N 49°09' W 123°02'5 9.3
2018-Apr-20 03:56N 49°07' W 123°09'19 5.5
2018-Apr-20 00:23N 48°57' W 123°35'1 3.1
2018-Apr-19 23:59N 48°56' W 123°37'3 5.3
2018-Apr-19 23:29N 48°53' W 123°37'1 2.3
2018-Apr-19 22:52N 48°53' W 123°38'0 0.4
2018-Apr-19 22:26N 48°52' W 123°38'0 1.1
2018-Apr-19 22:00N 48°52' W 123°37'1 2.9
2018-Apr-19 21:30N 48°54' W 123°36'1 2.9
2018-Apr-19 21:00N 48°55' W 123°36'1 2.7
2018-Apr-19 20:30N 48°56' W 123°37'14 4.8
2018-Apr-19 17:29N 49°06' W 123°20'3 6.5
2018-Apr-19 17:00N 49°07' W 123°16'4 5.8
2018-Apr-19 16:20N 49°07' W 123°10'2 6.1
2018-Apr-19 16:00N 49°07' W 123°07'3 5.9
2018-Apr-19 15:30N 49°08' W 123°03'3 5.7
2018-Apr-19 15:00N 49°09' W 122°59'1 2.3
2018-Apr-19 14:30N 49°09' W 122°57'1 2.8
2018-Apr-19 14:00N 49°10' W 122°55'0 0.0
2018-Apr-19 13:30N 49°10' W 122°55'0 0.0
2018-Apr-19 13:00N 49°10' W 122°55'0 0.0
2018-Apr-19 12:30N 49°10' W 122°55'0 0.0
2018-Apr-19 12:00N 49°10' W 122°55'0 0.0
2018-Apr-19 11:28N 49°10' W 122°55'0 0.0
2018-Apr-19 11:00N 49°10' W 122°55'0 0.0
2018-Apr-19 10:30N 49°10' W 122°55'0 0.0
2018-Apr-19 10:00N 49°10' W 122°55'0 0.0
2018-Apr-19 09:30N 49°10' W 122°55'0 0.0
2018-Apr-19 08:59N 49°10' W 122°55'0 0.0
2018-Apr-19 08:28N 49°10' W 122°55'0 0.0
2018-Apr-19 08:00N 49°10' W 122°55'0 0.0
2018-Apr-19 07:30N 49°10' W 122°55'0 0.0
2018-Apr-19 07:00N 49°10' W 122°55'1 3.0
2018-Apr-19 06:30N 49°12' W 122°55'0 0.9
2018-Apr-19 06:00N 49°12' W 122°55'0 0.0
2018-Apr-19 05:28N 49°12' W 122°55'0 0.0
2018-Apr-19 04:59N 49°12' W 122°55'0 0.0
2018-Apr-19 04:30N 49°12' W 122°55'3 6.9
2018-Apr-19 04:00N 49°09' W 122°58'0 0.4
2018-Apr-19 03:30N 49°10' W 122°58'4 7.0
2018-Apr-19 02:59N 49°08' W 123°03'5 9.0
2018-Apr-19 02:27N 49°07' W 123°10'20 7.2
2018-Apr-18 23:40N 48°57' W 123°37'1 6.0
2018-Apr-18 23:30N 48°56' W 123°36'3 6.4
2018-Apr-18 23:01N 48°53' W 123°38'0 0.6
2018-Apr-18 22:28N 48°52' W 123°38'0 0.8
2018-Apr-18 22:00N 48°52' W 123°38'1 2.1
2018-Apr-18 21:30N 48°53' W 123°37'1 2.8
2018-Apr-18 21:00N 48°55' W 123°37'1 2.7
2018-Apr-18 20:29N 48°56' W 123°37'16 5.6
2018-Apr-18 17:34N 49°06' W 123°18'2 6.9
2018-Apr-18 17:20N 49°07' W 123°16'2 6.6
2018-Apr-18 17:00N 49°07' W 123°12'3 6.8
2018-Apr-18 16:30N 49°07' W 123°07'3 6.5
2018-Apr-18 16:00N 49°08' W 123°03'3 5.7
2018-Apr-18 15:29N 49°09' W 122°59'1 1.9
2018-Apr-18 15:00N 49°09' W 122°58'0 0.0
2018-Apr-18 14:30N 49°09' W 122°58'3 5.3
2018-Apr-18 14:00N 49°11' W 122°55'1 1.3
2018-Apr-18 13:30N 49°12' W 122°55'0 0.0
2018-Apr-18 12:58N 49°12' W 122°55'0 0.0
2018-Apr-18 12:30N 49°12' W 122°55'0 0.0
2018-Apr-18 12:00N 49°12' W 122°55'0 0.0
2018-Apr-18 11:30N 49°12' W 122°55'0 0.0
2018-Apr-18 11:00N 49°12' W 122°55'0 0.0
2018-Apr-18 10:30N 49°12' W 122°55'0 0.0
2018-Apr-18 10:00N 49°12' W 122°55'0 0.0
2018-Apr-18 09:30N 49°12' W 122°55'0 0.0
2018-Apr-18 09:00N 49°12' W 122°55'0 0.0
2018-Apr-18 08:30N 49°12' W 122°55'0 0.0
2018-Apr-18 07:59N 49°12' W 122°55'0 0.0
2018-Apr-18 07:30N 49°12' W 122°55'0 0.0
2018-Apr-18 07:00N 49°12' W 122°55'0 0.0
2018-Apr-18 06:30N 49°12' W 122°55'0 0.0
2018-Apr-18 06:00N 49°12' W 122°55'0 0.8
2018-Apr-18 05:30N 49°12' W 122°55'3 6.0
2018-Apr-18 05:00N 49°10' W 122°58'0 0.5
2018-Apr-18 04:30N 49°09' W 122°58'4 7.9
2018-Apr-18 04:00N 49°08' W 123°04'7 7.9
2018-Apr-18 03:11N 49°08' W 123°14'3 6.9
2018-Apr-18 02:42N 49°07' W 123°19'2 7.9
2018-Apr-18 02:30N 49°09' W 123°19'4 8.0
2018-Apr-18 02:01N 49°13' W 123°18'3 6.1
2018-Apr-18 01:29N 49°16' W 123°18'4 7.7
2018-Apr-18 01:00N 49°17' W 123°23'4 7.0
2018-Apr-18 00:30N 49°19' W 123°28'36 7.2
2018-Apr-17 19:33N 49°38' W 124°14'2 8.1
2018-Apr-17 19:21N 49°39' W 124°16'3 7.8
2018-Apr-17 18:57N 49°41' W 124°19'4 7.7
2018-Apr-17 18:29N 49°44' W 124°23'4 7.8
2018-Apr-17 17:59N 49°46' W 124°28'4 7.5
2018-Apr-17 17:30N 49°48' W 124°32'4 7.3
2018-Apr-17 17:00N 49°52' W 124°34'1 1.1
2018-Apr-17 16:30N 49°52' W 124°33'1 1.1
2018-Apr-17 15:59N 49°52' W 124°34'2 4.3
2018-Apr-17 15:30N 49°50' W 124°33'3 6.0
2018-Apr-17 15:00N 49°47' W 124°31'3 6.0
2018-Apr-17 14:30N 49°45' W 124°27'3 5.9
2018-Apr-17 14:00N 49°44' W 124°23'44 5.7
2018-Apr-17 06:22N 49°14' W 123°34'3 5.4
2018-Apr-17 05:45N 49°12' W 123°30'1 5.5
2018-Apr-17 05:30N 49°11' W 123°28'3 5.5
2018-Apr-17 05:00N 49°09' W 123°25'3 5.4
2018-Apr-17 04:24N 49°07' W 123°21'2 5.3
2018-Apr-17 04:00N 49°06' W 123°18'4 5.6
2018-Apr-17 03:21N 49°08' W 123°13'3 5.2
2018-Apr-17 02:52N 49°07' W 123°10'2 4.8
2018-Apr-17 02:30N 49°07' W 123°07'2 4.4
2018-Apr-17 01:59N 49°08' W 123°04'2 4.4
2018-Apr-17 01:30N 49°09' W 123°02'2 4.5
2018-Apr-17 01:00N 49°09' W 122°58'1 1.0
2018-Apr-17 00:30N 49°09' W 122°58'1 1.1
2018-Apr-17 00:00N 49°09' W 122°58'1 2.5
2018-Apr-16 23:30N 49°09' W 123°00'1 2.4
2018-Apr-16 23:00N 49°09' W 123°02'3 5.4
2018-Apr-16 22:30N 49°07' W 123°05'6 4.9
2018-Apr-16 21:21N 49°08' W 123°14'18 3.3
2018-Apr-16 15:57N 48°57' W 123°35'2 4.5
2018-Apr-16 15:30N 48°55' W 123°36'2 3.6
2018-Apr-16 15:00N 48°53' W 123°37'1 2.2
2018-Apr-16 14:30N 48°53' W 123°38'0 0.2
2018-Apr-16 14:00N 48°53' W 123°38'1 1.1
2018-Apr-16 13:31N 48°53' W 123°38'2 3.0
2018-Apr-16 12:59N 48°54' W 123°37'2 3.4
2018-Apr-16 12:30N 48°56' W 123°37'11 3.8
2018-Apr-16 09:41N 49°04' W 123°27'1 3.5
2018-Apr-16 09:25N 49°04' W 123°25'2 3.4
2018-Apr-16 08:50N 49°05' W 123°23'1 3.3
2018-Apr-16 08:29N 49°05' W 123°21'2 4.4
2018-Apr-16 07:56N 49°07' W 123°17'3 7.1
2018-Apr-16 07:30N 49°08' W 123°13'4 7.6
2018-Apr-16 07:00N 49°06' W 123°08'3 7.0
2018-Apr-16 06:30N 49°08' W 123°03'3 5.5
2018-Apr-16 06:00N 49°09' W 122°59'1 2.7
2018-Apr-16 05:30N 49°09' W 122°57'1 1.7
2018-Apr-16 05:00N 49°10' W 122°56'1 1.1
2018-Apr-16 04:29N 49°10' W 122°55'0 0.0
2018-Apr-16 04:00N 49°10' W 122°55'0 0.0
2018-Apr-16 03:30N 49°10' W 122°55'0 0.0
2018-Apr-16 03:00N 49°10' W 122°55'0 0.0
2018-Apr-16 02:24N 49°10' W 122°55'0 0.0
2018-Apr-16 02:00N 49°10' W 122°55'0 0.0
2018-Apr-16 01:30N 49°10' W 122°55'0 0.0
2018-Apr-16 01:00N 49°10' W 122°55'0 0.0
2018-Apr-16 00:30N 49°10' W 122°55'0 0.0
2018-Apr-16 00:00N 49°10' W 122°55'0 0.0
2018-Apr-15 23:30N 49°10' W 122°55'0 0.0
2018-Apr-15 22:58N 49°10' W 122°55'0 0.0
2018-Apr-15 22:30N 49°10' W 122°55'2 3.7
2018-Apr-15 22:00N 49°10' W 122°58'2 3.5
2018-Apr-15 21:30N 49°09' W 123°01'3 6.0
2018-Apr-15 21:00N 49°07' W 123°04'3 5.9
2018-Apr-15 20:28N 49°07' W 123°09'21 5.3
2018-Apr-15 16:38N 48°57' W 123°37'1 7.9
2018-Apr-15 16:30N 48°56' W 123°37'4 7.2
2018-Apr-15 16:00N 48°52' W 123°38'1 0.1
2018-Apr-15 12:14N 48°53' W 123°38'0 0.2
2018-Apr-15 11:59N 48°53' W 123°38'0 0.0
2018-Apr-15 10:47N 48°53' W 123°38'0 0.0
2018-Apr-15 10:28N 48°53' W 123°38'0 0.2
2018-Apr-15 09:58N 48°53' W 123°38'0 0.0
2018-Apr-15 09:22N 48°53' W 123°38'0 0.0
2018-Apr-15 08:29N 48°53' W 123°38'0 0.1
2018-Apr-15 07:49N 48°53' W 123°38'0 0.5
2018-Apr-15 07:30N 48°52' W 123°38'0 0.9
2018-Apr-15 07:01N 48°53' W 123°37'3 5.0
2018-Apr-15 06:30N 48°55' W 123°37'16 5.6
2018-Apr-15 03:39N 49°09' W 123°25'2 6.7
2018-Apr-15 03:18N 49°11' W 123°23'2 6.8
2018-Apr-15 02:56N 49°13' W 123°20'3 6.7
2018-Apr-15 02:30N 49°15' W 123°18'1 1.3
2018-Apr-15 02:00N 49°16' W 123°17'  
Track history (hours):
 
Tides and Currents Weather Stations Pressure Air Temp Water Temp Dewpoint Dewpoint Depression Visibility Wind Speed Wind Dir Waves Ship Positions

Seaspan Commander

Last reported at 2018-Apr-25 00:30 UTC. Time now 2018-Apr-25 00:49 UTC.
Position N 49°08' W 123°13'.

Length 23 m; draft 4.3 m.

Type: Tug. MMSI: 316005498.

Date/timePositionNaut miles runAvg speedWind from/ knotsBaromVisibWave heightAir tempDewpointWater temp
2018-Apr-25 00:30N 49°08' W 123°13'5 9.8
2018-Apr-24 23:58N 49°07' W 123°05'4 9.2
2018-Apr-24 23:30N 49°09' W 122°59'2 3.0
2018-Apr-24 22:59N 49°09' W 122°57'2 4.7
2018-Apr-24 22:30N 49°09' W 123°00'3 6.9
2018-Apr-24 22:00N 49°07' W 123°05'3 6.7
2018-Apr-24 21:30N 49°07' W 123°10'3 6.4
2018-Apr-24 20:58N 49°08' W 123°15'3 7.5
2018-Apr-24 20:30N 49°06' W 123°19'4 7.2
2018-Apr-24 20:00N 49°07' W 123°25'5 8.6
2018-Apr-24 19:28N 49°09' W 123°31'6 0.7
2018-Apr-24 10:58N 49°12' W 123°38'2 5.1
2018-Apr-24 10:29N 49°11' W 123°35'3 5.1
2018-Apr-24 09:59N 49°10' W 123°31'2 4.6
2018-Apr-24 09:30N 49°09' W 123°28'2 4.3
2018-Apr-24 09:00N 49°08' W 123°25'2 4.2
2018-Apr-24 08:30N 49°07' W 123°23'2 4.8
2018-Apr-24 08:00N 49°06' W 123°19'3 6.8
2018-Apr-24 07:30N 49°08' W 123°14'3 6.2
2018-Apr-24 07:00N 49°07' W 123°10'3 6.2
2018-Apr-24 06:30N 49°07' W 123°05'3 6.8
2018-Apr-24 06:00N 49°09' W 123°01'3 5.6
2018-Apr-24 05:30N 49°10' W 122°57'0 0.5
2018-Apr-24 05:01N 49°09' W 122°57'0 0.9
2018-Apr-24 04:30N 49°10' W 122°58'0 0.0
2018-Apr-24 04:00N 49°10' W 122°58'1 2.4
2018-Apr-24 03:30N 49°09' W 122°60'4 7.8
2018-Apr-24 03:00N 49°07' W 123°05'6 7.0
2018-Apr-24 02:11N 49°08' W 123°14'1 6.7
2018-Apr-24 01:59N 49°07' W 123°15'2 4.4
2018-Apr-24 01:27N 49°08' W 123°19'4 9.9
2018-Apr-24 01:00N 49°12' W 123°18'5 9.4
2018-Apr-24 00:30N 49°17' W 123°17'3 6.9
2018-Apr-24 00:00N 49°18' W 123°12'4 7.3
2018-Apr-23 23:30N 49°18' W 123°07'0 0.6
2018-Apr-23 23:00N 49°19' W 123°06'0 0.0
2018-Apr-23 22:30N 49°19' W 123°06'0 0.0
2018-Apr-23 22:00N 49°19' W 123°06'0 0.0
2018-Apr-23 21:30N 49°19' W 123°06'0 0.0
2018-Apr-23 21:00N 49°19' W 123°06'0 0.0
2018-Apr-23 20:30N 49°19' W 123°06'0 0.0
2018-Apr-23 20:00N 49°19' W 123°06'0 0.0
2018-Apr-23 19:30N 49°19' W 123°06'0 0.0
2018-Apr-22 15:46N 49°19' W 123°06'0 0.0
2018-Apr-22 13:50N 49°19' W 123°06'0 0.0
2018-Apr-22 13:30N 49°19' W 123°06'0 0.0
2018-Apr-22 13:00N 49°19' W 123°06'0 0.0
2018-Apr-22 12:30N 49°19' W 123°06'0 0.0
2018-Apr-22 12:00N 49°19' W 123°06'0 0.0
2018-Apr-22 11:30N 49°19' W 123°06'0 0.0
2018-Apr-22 11:00N 49°19' W 123°06'0 0.0
2018-Apr-22 10:30N 49°19' W 123°06'2 5.0
2018-Apr-22 10:00N 49°19' W 123°10'510.0
2018-Apr-22 09:30N 49°17' W 123°17'5 9.8
2018-Apr-22 08:57N 49°12' W 123°18'5 9.1
2018-Apr-22 08:22N 49°06' W 123°19'4 9.8
2018-Apr-22 08:00N 49°08' W 123°13'5 9.3
2018-Apr-22 07:29N 49°07' W 123°06'5 9.1
2018-Apr-22 06:59N 49°09' W 123°00'4 7.9
2018-Apr-22 06:30N 49°11' W 122°55'2 4.5
2018-Apr-22 06:00N 49°13' W 122°53'1 2.8
2018-Apr-22 05:30N 49°12' W 122°55'3 6.3
2018-Apr-22 04:59N 49°09' W 122°58'4 8.6
2018-Apr-22 04:30N 49°08' W 123°04'6 8.2
2018-Apr-22 03:43N 49°08' W 123°14'19 6.8
2018-Apr-22 00:59N 48°57' W 123°37'2 4.8
2018-Apr-22 00:30N 48°54' W 123°36'2 4.7
2018-Apr-22 00:01N 48°52' W 123°38'0 0.4
2018-Apr-21 23:30N 48°52' W 123°38'0 0.5
2018-Apr-21 22:50N 48°53' W 123°38'1 2.0
2018-Apr-21 22:30N 48°53' W 123°37'3 6.2
2018-Apr-21 22:00N 48°56' W 123°37'14 6.1
2018-Apr-21 19:41N 49°05' W 123°20'2 6.7
2018-Apr-21 19:23N 49°06' W 123°18'3 7.5
2018-Apr-21 18:59N 49°08' W 123°14'4 7.5
2018-Apr-21 18:30N 49°07' W 123°09'4 7.1
2018-Apr-21 18:00N 49°08' W 123°04'3 6.6
2018-Apr-21 17:30N 49°09' W 122°59'1 2.0
2018-Apr-21 16:59N 49°09' W 122°58'1 1.7
2018-Apr-21 16:30N 49°10' W 122°56'1 1.6
2018-Apr-21 16:00N 49°10' W 122°55'0 0.0
2018-Apr-21 15:30N 49°10' W 122°55'1 1.2
2018-Apr-21 15:00N 49°10' W 122°56'1 1.6
2018-Apr-21 14:30N 49°09' W 122°57'0 0.0
2018-Apr-21 13:58N 49°09' W 122°57'0 0.0
2018-Apr-21 13:30N 49°09' W 122°57'0 0.0
2018-Apr-21 13:00N 49°09' W 122°57'0 0.0
2018-Apr-21 12:30N 49°09' W 122°57'0 0.0
2018-Apr-21 12:00N 49°09' W 122°57'0 0.0
2018-Apr-21 11:30N 49°09' W 122°57'0 0.0
2018-Apr-21 11:00N 49°09' W 122°57'0 0.0
2018-Apr-21 10:30N 49°09' W 122°57'0 0.0
2018-Apr-21 10:00N 49°09' W 122°57'0 0.0
2018-Apr-21 09:30N 49°09' W 122°57'0 0.0
2018-Apr-21 09:00N 49°09' W 122°57'0 0.0
2018-Apr-21 08:30N 49°09' W 122°57'3 6.7
2018-Apr-21 08:00N 49°09' W 123°02'510.1
2018-Apr-21 07:30N 49°07' W 123°09'2 0.3
2018-Apr-21 02:48N 49°07' W 123°12'3 8.6
2018-Apr-21 02:30N 49°07' W 123°08'4 8.9
2018-Apr-21 02:00N 49°09' W 123°02'3 5.1
2018-Apr-21 01:30N 49°10' W 122°58'0 0.0
2018-Apr-21 01:00N 49°10' W 122°58'1 1.3
2018-Apr-21 00:30N 49°09' W 122°59'3 6.0
2018-Apr-21 00:00N 49°08' W 123°03'3 5.8
2018-Apr-20 23:29N 49°07' W 123°07'3 5.3
2018-Apr-20 22:55N 49°07' W 123°12'2 5.0
2018-Apr-20 22:30N 49°08' W 123°15'17 4.5
2018-Apr-20 18:41N 48°57' W 123°35'1 4.7
2018-Apr-20 18:29N 48°56' W 123°37'3 5.4
2018-Apr-20 17:58N 48°53' W 123°37'1 3.1
2018-Apr-20 17:30N 48°53' W 123°38'0 0.4
2018-Apr-20 17:00N 48°53' W 123°38'3 5.8
2018-Apr-20 16:30N 48°55' W 123°40'2 2.2
2018-Apr-20 15:45N 48°55' W 123°43'0 0.1
2018-Apr-20 14:47N 48°55' W 123°43'1 4.4
2018-Apr-20 14:29N 48°56' W 123°41'4 7.6
2018-Apr-20 14:00N 48°52' W 123°38'0 0.2
2018-Apr-20 13:28N 48°52' W 123°38'1 2.6
2018-Apr-20 13:00N 48°53' W 123°37'2 4.4
2018-Apr-20 12:30N 48°56' W 123°37'14 4.7
2018-Apr-20 09:27N 49°05' W 123°21'3 6.1
2018-Apr-20 09:00N 49°07' W 123°17'3 5.7
2018-Apr-20 08:30N 49°08' W 123°13'3 5.9
2018-Apr-20 08:00N 49°07' W 123°09'3 5.6
2018-Apr-20 07:29N 49°07' W 123°05'3 5.5
2018-Apr-20 07:00N 49°09' W 123°01'2 4.7
2018-Apr-20 06:30N 49°09' W 122°58'0 0.6
2018-Apr-20 06:00N 49°09' W 122°57'0 0.1
2018-Apr-20 05:29N 49°09' W 122°57'0 0.9
2018-Apr-20 04:59N 49°10' W 122°58'3 5.4
2018-Apr-20 04:30N 49°09' W 123°02'5 9.3
2018-Apr-20 03:56N 49°07' W 123°09'19 5.5
2018-Apr-20 00:23N 48°57' W 123°35'1 3.1
2018-Apr-19 23:59N 48°56' W 123°37'3 5.3
2018-Apr-19 23:29N 48°53' W 123°37'1 2.3
2018-Apr-19 22:52N 48°53' W 123°38'0 0.4
2018-Apr-19 22:26N 48°52' W 123°38'0 1.1
2018-Apr-19 22:00N 48°52' W 123°37'1 2.9
2018-Apr-19 21:30N 48°54' W 123°36'1 2.9
2018-Apr-19 21:00N 48°55' W 123°36'1 2.7
2018-Apr-19 20:30N 48°56' W 123°37'14 4.8
2018-Apr-19 17:29N 49°06' W 123°20'3 6.5
2018-Apr-19 17:00N 49°07' W 123°16'4 5.8
2018-Apr-19 16:20N 49°07' W 123°10'2 6.1
2018-Apr-19 16:00N 49°07' W 123°07'3 5.9
2018-Apr-19 15:30N 49°08' W 123°03'3 5.7
2018-Apr-19 15:00N 49°09' W 122°59'1 2.3
2018-Apr-19 14:30N 49°09' W 122°57'1 2.8
2018-Apr-19 14:00N 49°10' W 122°55'0 0.0
2018-Apr-19 13:30N 49°10' W 122°55'0 0.0
2018-Apr-19 13:00N 49°10' W 122°55'0 0.0
2018-Apr-19 12:30N 49°10' W 122°55'0 0.0
2018-Apr-19 12:00N 49°10' W 122°55'0 0.0
2018-Apr-19 11:28N 49°10' W 122°55'0 0.0
2018-Apr-19 11:00N 49°10' W 122°55'0 0.0
2018-Apr-19 10:30N 49°10' W 122°55'0 0.0
2018-Apr-19 10:00N 49°10' W 122°55'0 0.0
2018-Apr-19 09:30N 49°10' W 122°55'0 0.0
2018-Apr-19 08:59N 49°10' W 122°55'0 0.0
2018-Apr-19 08:28N 49°10' W 122°55'0 0.0
2018-Apr-19 08:00N 49°10' W 122°55'0 0.0
2018-Apr-19 07:30N 49°10' W 122°55'0 0.0
2018-Apr-19 07:00N 49°10' W 122°55'1 3.0
2018-Apr-19 06:30N 49°12' W 122°55'0 0.9
2018-Apr-19 06:00N 49°12' W 122°55'0 0.0
2018-Apr-19 05:28N 49°12' W 122°55'0 0.0
2018-Apr-19 04:59N 49°12' W 122°55'0 0.0
2018-Apr-19 04:30N 49°12' W 122°55'3 6.9
2018-Apr-19 04:00N 49°09' W 122°58'0 0.4
2018-Apr-19 03:30N 49°10' W 122°58'4 7.0
2018-Apr-19 02:59N 49°08' W 123°03'5 9.0
2018-Apr-19 02:27N 49°07' W 123°10'20 7.2
2018-Apr-18 23:40N 48°57' W 123°37'1 6.0
2018-Apr-18 23:30N 48°56' W 123°36'3 6.4
2018-Apr-18 23:01N 48°53' W 123°38'0 0.6
2018-Apr-18 22:28N 48°52' W 123°38'0 0.8
2018-Apr-18 22:00N 48°52' W 123°38'1 2.1
2018-Apr-18 21:30N 48°53' W 123°37'1 2.8
2018-Apr-18 21:00N 48°55' W 123°37'1 2.7
2018-Apr-18 20:29N 48°56' W 123°37'16 5.6
2018-Apr-18 17:34N 49°06' W 123°18'2 6.9
2018-Apr-18 17:20N 49°07' W 123°16'2 6.6
2018-Apr-18 17:00N 49°07' W 123°12'3 6.8
2018-Apr-18 16:30N 49°07' W 123°07'3 6.5
2018-Apr-18 16:00N 49°08' W 123°03'3 5.7
2018-Apr-18 15:29N 49°09' W 122°59'1 1.9
2018-Apr-18 15:00N 49°09' W 122°58'0 0.0
2018-Apr-18 14:30N 49°09' W 122°58'3 5.3
2018-Apr-18 14:00N 49°11' W 122°55'1 1.3
2018-Apr-18 13:30N 49°12' W 122°55'0 0.0
2018-Apr-18 12:58N 49°12' W 122°55'0 0.0
2018-Apr-18 12:30N 49°12' W 122°55'0 0.0
2018-Apr-18 12:00N 49°12' W 122°55'0 0.0
2018-Apr-18 11:30N 49°12' W 122°55'0 0.0
2018-Apr-18 11:00N 49°12' W 122°55'0 0.0
2018-Apr-18 10:30N 49°12' W 122°55'0 0.0
2018-Apr-18 10:00N 49°12' W 122°55'0 0.0
2018-Apr-18 09:30N 49°12' W 122°55'0 0.0
2018-Apr-18 09:00N 49°12' W 122°55'0 0.0
2018-Apr-18 08:30N 49°12' W 122°55'0 0.0
2018-Apr-18 07:59N 49°12' W 122°55'0 0.0
2018-Apr-18 07:30N 49°12' W 122°55'0 0.0
2018-Apr-18 07:00N 49°12' W 122°55'0 0.0
2018-Apr-18 06:30N 49°12' W 122°55'0 0.0
2018-Apr-18 06:00N 49°12' W 122°55'0 0.8
2018-Apr-18 05:30N 49°12' W 122°55'3 6.0
2018-Apr-18 05:00N 49°10' W 122°58'0 0.5
2018-Apr-18 04:30N 49°09' W 122°58'4 7.9
2018-Apr-18 04:00N 49°08' W 123°04'7 7.9
2018-Apr-18 03:11N 49°08' W 123°14'3 6.9
2018-Apr-18 02:42N 49°07' W 123°19'2 7.9
2018-Apr-18 02:30N 49°09' W 123°19'4 8.0
2018-Apr-18 02:01N 49°13' W 123°18'3 6.1
2018-Apr-18 01:29N 49°16' W 123°18'4 7.7
2018-Apr-18 01:00N 49°17' W 123°23'4 7.0
2018-Apr-18 00:30N 49°19' W 123°28'36 7.2
2018-Apr-17 19:33N 49°38' W 124°14'2 8.1
2018-Apr-17 19:21N 49°39' W 124°16'3 7.8
2018-Apr-17 18:57N 49°41' W 124°19'4 7.7
2018-Apr-17 18:29N 49°44' W 124°23'4 7.8
2018-Apr-17 17:59N 49°46' W 124°28'4 7.5
2018-Apr-17 17:30N 49°48' W 124°32'4 7.3
2018-Apr-17 17:00N 49°52' W 124°34'1 1.1
2018-Apr-17 16:30N 49°52' W 124°33'1 1.1
2018-Apr-17 15:59N 49°52' W 124°34'2 4.3
2018-Apr-17 15:30N 49°50' W 124°33'3 6.0
2018-Apr-17 15:00N 49°47' W 124°31'3 6.0
2018-Apr-17 14:30N 49°45' W 124°27'3 5.9
2018-Apr-17 14:00N 49°44' W 124°23'44 5.7
2018-Apr-17 06:22N 49°14' W 123°34'3 5.4
2018-Apr-17 05:45N 49°12' W 123°30'1 5.5
2018-Apr-17 05:30N 49°11' W 123°28'3 5.5
2018-Apr-17 05:00N 49°09' W 123°25'3 5.4
2018-Apr-17 04:24N 49°07' W 123°21'2 5.3
2018-Apr-17 04:00N 49°06' W 123°18'4 5.6
2018-Apr-17 03:21N 49°08' W 123°13'3 5.2
2018-Apr-17 02:52N 49°07' W 123°10'2 4.8
2018-Apr-17 02:30N 49°07' W 123°07'2 4.4
2018-Apr-17 01:59N 49°08' W 123°04'2 4.4
2018-Apr-17 01:30N 49°09' W 123°02'2 4.5
2018-Apr-17 01:00N 49°09' W 122°58'1 1.0
2018-Apr-17 00:30N 49°09' W 122°58'1 1.1
2018-Apr-17 00:00N 49°09' W 122°58'1 2.5
2018-Apr-16 23:30N 49°09' W 123°00'1 2.4
2018-Apr-16 23:00N 49°09' W 123°02'3 5.4
2018-Apr-16 22:30N 49°07' W 123°05'6 4.9
2018-Apr-16 21:21N 49°08' W 123°14'18 3.3
2018-Apr-16 15:57N 48°57' W 123°35'2 4.5
2018-Apr-16 15:30N 48°55' W 123°36'2 3.6
2018-Apr-16 15:00N 48°53' W 123°37'1 2.2
2018-Apr-16 14:30N 48°53' W 123°38'0 0.2
2018-Apr-16 14:00N 48°53' W 123°38'1 1.1
2018-Apr-16 13:31N 48°53' W 123°38'2 3.0
2018-Apr-16 12:59N 48°54' W 123°37'2 3.4
2018-Apr-16 12:30N 48°56' W 123°37'11 3.8
2018-Apr-16 09:41N 49°04' W 123°27'1 3.5
2018-Apr-16 09:25N 49°04' W 123°25'2 3.4
2018-Apr-16 08:50N 49°05' W 123°23'1 3.3
2018-Apr-16 08:29N 49°05' W 123°21'2 4.4
2018-Apr-16 07:56N 49°07' W 123°17'3 7.1
2018-Apr-16 07:30N 49°08' W 123°13'4 7.6
2018-Apr-16 07:00N 49°06' W 123°08'3 7.0
2018-Apr-16 06:30N 49°08' W 123°03'3 5.5
2018-Apr-16 06:00N 49°09' W 122°59'1 2.7
2018-Apr-16 05:30N 49°09' W 122°57'1 1.7
2018-Apr-16 05:00N 49°10' W 122°56'1 1.1
2018-Apr-16 04:29N 49°10' W 122°55'0 0.0
2018-Apr-16 04:00N 49°10' W 122°55'0 0.0
2018-Apr-16 03:30N 49°10' W 122°55'0 0.0
2018-Apr-16 03:00N 49°10' W 122°55'0 0.0
2018-Apr-16 02:24N 49°10' W 122°55'0 0.0
2018-Apr-16 02:00N 49°10' W 122°55'0 0.0
2018-Apr-16 01:30N 49°10' W 122°55'0 0.0
2018-Apr-16 01:00N 49°10' W 122°55'0 0.0
2018-Apr-16 00:30N 49°10' W 122°55'0 0.0
2018-Apr-16 00:00N 49°10' W 122°55'0 0.0
2018-Apr-15 23:30N 49°10' W 122°55'0 0.0
2018-Apr-15 22:58N 49°10' W 122°55'0 0.0
2018-Apr-15 22:30N 49°10' W 122°55'2 3.7
2018-Apr-15 22:00N 49°10' W 122°58'2 3.5
2018-Apr-15 21:30N 49°09' W 123°01'3 6.0
2018-Apr-15 21:00N 49°07' W 123°04'3 5.9
2018-Apr-15 20:28N 49°07' W 123°09'21 5.3
2018-Apr-15 16:38N 48°57' W 123°37'1 7.9
2018-Apr-15 16:30N 48°56' W 123°37'4 7.2
2018-Apr-15 16:00N 48°52' W 123°38'1 0.1
2018-Apr-15 12:14N 48°53' W 123°38'0 0.2
2018-Apr-15 11:59N 48°53' W 123°38'0 0.0
2018-Apr-15 10:47N 48°53' W 123°38'0 0.0
2018-Apr-15 10:28N 48°53' W 123°38'0 0.2
2018-Apr-15 09:58N 48°53' W 123°38'0 0.0
2018-Apr-15 09:22N 48°53' W 123°38'0 0.0
2018-Apr-15 08:29N 48°53' W 123°38'0 0.1
2018-Apr-15 07:49N 48°53' W 123°38'0 0.5
2018-Apr-15 07:30N 48°52' W 123°38'0 0.9
2018-Apr-15 07:01N 48°53' W 123°37'3 5.0
2018-Apr-15 06:30N 48°55' W 123°37'16 5.6
2018-Apr-15 03:39N 49°09' W 123°25'2 6.7
2018-Apr-15 03:18N 49°11' W 123°23'2 6.8
2018-Apr-15 02:56N 49°13' W 123°20'3 6.7
2018-Apr-15 02:30N 49°15' W 123°18'1 1.3
2018-Apr-15 02:00N 49°16' W 123°17'  

Dump ship's entire track history